Dickey, North Dakota
Current Conditions -  °F | °C
As of 12:56 AM on Monday 22 Dec 2014 (Local Time) from KJMS Reporting Station
Haze Haze  
Wind Chill: 26°   Ceiling: 300
Heat Index: 32°   Visibility: 2.5mi
Dew Point: 31°   Wind: 7mph
Humidity: 96%   Direction: 130°SE
Pressure: 29.46"   Gusts: NA
Location:  46.54°N, 98.47°W
Report Text: KJMS 220656Z AUTO 13006KT 2 1/2SM BR OVC003 00/M01 A2946 RMK AO2 SLP992 I1000 T00001006
Loading
Personal Weather Stations






























Interactive Weather Map New forecast layout! Learn more

10-Day Weather Forecast

Advertisements
Track Severe Weather on mobile